createdAt,value
2023-03-15T00:02:14.450Z,25.10
2023-03-15T00:07:21.935Z,25.10
2023-03-15T00:12:29.328Z,25.10
2023-03-15T00:17:37.035Z,25.10
2023-03-15T00:22:45.724Z,25.10
2023-03-15T00:28:04.475Z,25.10
2023-03-15T00:33:10.968Z,25.00
2023-03-15T00:38:19.890Z,25.00
2023-03-15T00:43:27.621Z,24.90
2023-03-15T00:48:35.137Z,24.80
2023-03-15T00:53:42.696Z,24.70
2023-03-15T00:58:54.721Z,24.70
2023-03-15T01:04:02.984Z,24.60
2023-03-15T01:09:13.480Z,24.50
2023-03-15T01:14:36.304Z,24.40
2023-03-15T01:19:37.794Z,24.30
2023-03-15T01:24:45.333Z,24.30
2023-03-15T01:29:53.837Z,24.20
2023-03-15T01:35:01.548Z,24.10
2023-03-15T01:40:09.507Z,24.00
2023-03-15T01:45:18.721Z,24.00
2023-03-15T01:50:29.808Z,23.90
2023-03-15T01:55:37.449Z,23.80
2023-03-15T02:01:00.694Z,23.80
2023-03-15T02:06:02.881Z,23.70
2023-03-15T02:11:10.900Z,23.60
2023-03-15T02:16:23.267Z,23.60
2023-03-15T02:21:33.668Z,23.50
2023-03-15T02:26:41.190Z,23.40
2023-03-15T02:31:48.457Z,23.40
2023-03-15T02:36:55.855Z,23.30
2023-03-15T02:42:03.160Z,23.20
2023-03-15T02:47:10.369Z,23.20
2023-03-15T02:52:17.635Z,23.10
2023-03-15T02:57:24.995Z,23.10
2023-03-15T03:02:32.380Z,23.00
2023-03-15T03:07:39.628Z,22.90
2023-03-15T03:12:46.889Z,22.90
2023-03-15T03:17:54.187Z,22.90
2023-03-15T03:23:01.471Z,22.80
2023-03-15T03:28:08.749Z,22.70
2023-03-15T03:33:16.028Z,22.70
2023-03-15T03:38:23.339Z,22.60
2023-03-15T03:43:30.590Z,22.60
2023-03-15T03:48:37.807Z,22.50
2023-03-15T03:53:45.078Z,22.40
2023-03-15T03:58:52.355Z,22.40
2023-03-15T04:03:59.612Z,22.40
2023-03-15T04:09:06.782Z,22.30
2023-03-15T04:14:14.060Z,22.30
2023-03-15T04:19:21.288Z,22.20
2023-03-15T04:24:28.456Z,22.20
2023-03-15T04:29:35.745Z,22.10
2023-03-15T04:34:42.911Z,22.10
2023-03-15T04:39:50.087Z,22.10
2023-03-15T04:44:57.304Z,22.00
2023-03-15T04:50:04.455Z,22.00
2023-03-15T04:55:11.645Z,21.90
2023-03-15T05:00:18.868Z,21.90
2023-03-15T05:05:26.142Z,21.90
2023-03-15T05:10:33.452Z,21.80
2023-03-15T05:15:40.612Z,21.80
2023-03-15T05:20:47.749Z,21.80
2023-03-15T05:25:54.961Z,21.70
2023-03-15T05:31:02.178Z,21.70
2023-03-15T05:36:09.322Z,21.60
2023-03-15T05:41:16.572Z,21.60
2023-03-15T05:46:23.819Z,21.60
2023-03-15T05:51:31.001Z,21.50
2023-03-15T05:56:38.296Z,21.50
2023-03-15T06:01:45.601Z,21.50
2023-03-15T06:06:52.958Z,21.40
2023-03-15T06:12:00.370Z,21.40
2023-03-15T06:17:07.794Z,21.40
2023-03-15T06:22:16.672Z,21.30
2023-03-15T06:27:24.316Z,21.30
2023-03-15T06:32:35.902Z,21.30
2023-03-15T06:37:43.207Z,21.30
2023-03-15T06:43:05.620Z,21.20
2023-03-15T06:48:13.177Z,21.10
2023-03-15T06:53:22.685Z,21.10
2023-03-15T06:58:45.068Z,21.10
2023-03-15T07:03:57.472Z,21.00
2023-03-15T07:09:06.662Z,21.00
2023-03-15T07:14:14.174Z,21.00
2023-03-15T07:19:23.164Z,21.00
2023-03-15T07:24:54.526Z,20.90
2023-03-15T07:29:58.376Z,20.90
2023-03-15T07:35:05.858Z,20.80
2023-03-15T07:40:13.293Z,20.80
2023-03-15T07:45:20.620Z,20.80
2023-03-15T07:50:28.059Z,20.70
2023-03-15T07:55:44.407Z,20.70
2023-03-15T08:00:51.867Z,20.70
2023-03-15T08:06:02.039Z,20.70
2023-03-15T08:11:09.537Z,20.60
2023-03-15T08:16:17.254Z,20.60
2023-03-15T08:21:36.286Z,20.60
2023-03-15T08:26:41.476Z,20.60
2023-03-15T08:31:49.171Z,20.60
2023-03-15T08:36:56.577Z,20.60
2023-03-15T08:42:10.092Z,20.60
2023-03-15T08:47:17.912Z,20.60
2023-03-15T08:52:25.256Z,20.60
2023-03-15T08:57:32.463Z,20.50
2023-03-15T09:02:39.848Z,20.50
2023-03-15T09:07:47.389Z,20.50
2023-03-15T09:12:54.870Z,20.50
2023-03-15T09:18:02.233Z,20.50
2023-03-15T09:23:09.630Z,20.50
2023-03-15T09:28:18.715Z,20.50
2023-03-15T09:33:28.165Z,20.50
2023-03-15T09:38:35.862Z,20.40
2023-03-15T09:43:43.216Z,20.40
2023-03-15T09:48:51.302Z,20.40
2023-03-15T09:53:58.956Z,20.40
2023-03-15T09:59:15.990Z,20.40
2023-03-15T10:04:18.455Z,20.40
2023-03-15T10:09:25.893Z,20.40
2023-03-15T10:14:42.249Z,20.40
2023-03-15T10:19:49.593Z,20.30
2023-03-15T10:24:57.280Z,20.30
2023-03-15T10:30:08.298Z,20.30
2023-03-15T10:35:17.535Z,20.30
2023-03-15T10:40:26.452Z,20.30
2023-03-15T10:45:33.957Z,20.30
2023-03-15T10:50:41.286Z,20.30
2023-03-15T10:55:48.919Z,20.30
2023-03-15T11:00:57.562Z,20.30
2023-03-15T11:06:04.937Z,20.30
2023-03-15T11:11:14.214Z,20.30
2023-03-15T11:16:21.847Z,20.30
2023-03-15T11:21:29.127Z,20.30
2023-03-15T11:26:36.601Z,20.30
2023-03-15T11:31:43.917Z,20.20
2023-03-15T11:37:02.102Z,20.20
2023-03-15T11:42:01.461Z,20.20
2023-03-15T11:47:07.598Z,20.20
2023-03-15T11:52:15.500Z,20.20
2023-03-15T11:57:23.424Z,20.20
2023-03-15T12:02:30.861Z,20.20
2023-03-15T12:07:38.193Z,20.20
2023-03-15T12:12:45.587Z,20.20
2023-03-15T12:17:53.178Z,20.20
2023-03-15T12:23:06.116Z,20.20
2023-03-15T12:28:08.459Z,20.20
2023-03-15T12:33:15.872Z,20.20
2023-03-15T12:38:24.235Z,20.20
2023-03-15T12:43:31.501Z,20.20
2023-03-15T12:48:38.749Z,20.20
2023-03-15T12:53:46.044Z,20.20
2023-03-15T12:58:53.387Z,20.20
2023-03-15T13:04:00.599Z,20.20
2023-03-15T13:09:07.894Z,20.20
2023-03-15T13:14:15.339Z,20.20
2023-03-15T13:19:22.672Z,20.20
2023-03-15T13:24:29.956Z,20.20
2023-03-15T13:29:37.368Z,20.20
2023-03-15T13:34:44.731Z,20.20
2023-03-15T13:39:52.098Z,20.20
2023-03-15T13:44:59.433Z,20.20
2023-03-15T13:50:07.025Z,20.20
2023-03-15T13:55:17.325Z,20.20
2023-03-15T14:00:24.704Z,20.20
2023-03-15T14:05:36.881Z,20.20
2023-03-15T14:10:44.363Z,20.20
2023-03-15T14:15:54.775Z,20.20
2023-03-15T14:20:59.672Z,20.20
2023-03-15T14:26:07.041Z,20.20
2023-03-15T14:31:15.174Z,20.20
2023-03-15T14:36:22.973Z,20.20
2023-03-15T14:41:35.218Z,20.20
2023-03-15T14:46:42.700Z,20.10
2023-03-15T14:51:53.711Z,20.10
2023-03-15T14:56:58.597Z,20.10
2023-03-15T15:02:09.500Z,20.10
2023-03-15T15:07:16.816Z,20.10
2023-03-15T15:12:29.312Z,20.10
2023-03-15T15:17:36.906Z,20.10
2023-03-15T15:22:45.203Z,20.10
2023-03-15T15:27:52.633Z,20.10
2023-03-15T15:32:59.992Z,20.10
2023-03-15T15:38:07.373Z,20.10
2023-03-15T15:43:14.626Z,20.10
2023-03-15T15:48:22.077Z,20.10
2023-03-15T15:53:29.704Z,20.10
2023-03-15T15:58:40.041Z,20.10
2023-03-15T16:03:47.653Z,20.10
2023-03-15T16:08:55.343Z,20.10
2023-03-15T16:14:02.749Z,20.10
2023-03-15T16:19:10.436Z,20.00
2023-03-15T16:24:18.093Z,20.00
2023-03-15T16:29:25.716Z,20.00
2023-03-15T16:34:33.456Z,20.00
2023-03-15T16:39:41.528Z,20.00
2023-03-15T16:44:49.386Z,20.00
2023-03-15T16:49:57.107Z,20.00
2023-03-15T16:55:04.794Z,20.00
2023-03-15T17:00:12.455Z,20.00
2023-03-15T17:05:20.157Z,19.90
2023-03-15T17:10:28.066Z,19.90
2023-03-15T17:15:35.854Z,20.00
2023-03-15T17:20:43.288Z,19.90
2023-03-15T17:25:51.027Z,20.00
2023-03-15T17:31:13.963Z,19.90
2023-03-15T17:36:06.486Z,19.90
2023-03-15T17:41:15.303Z,20.00
2023-03-15T17:46:23.031Z,20.00
2023-03-15T17:51:30.633Z,20.00
2023-03-15T17:56:38.628Z,20.10
2023-03-15T18:01:46.648Z,20.20
2023-03-15T18:06:54.304Z,20.30
2023-03-15T18:12:01.976Z,20.30
2023-03-15T18:17:09.599Z,20.50
2023-03-15T18:22:17.240Z,20.60
2023-03-15T18:27:25.970Z,20.60
2023-03-15T18:32:33.618Z,20.80
2023-03-15T18:37:41.198Z,20.90
2023-03-15T18:42:48.887Z,21.00
2023-03-15T18:47:56.612Z,21.10
2023-03-15T18:53:06.051Z,21.10
2023-03-15T18:58:11.639Z,21.20
2023-03-15T19:03:19.251Z,21.30
2023-03-15T19:08:26.852Z,21.40
2023-03-15T19:13:34.472Z,21.50
2023-03-15T19:18:42.185Z,21.60
2023-03-15T19:23:49.583Z,21.70
2023-03-15T19:28:57.132Z,21.80
2023-03-15T19:34:04.904Z,21.90
2023-03-15T19:39:12.756Z,22.00
2023-03-15T19:44:20.877Z,22.00
2023-03-15T19:49:28.395Z,22.10
2023-03-15T19:54:36.033Z,22.20
2023-03-15T19:59:43.899Z,22.30
2023-03-15T20:04:51.520Z,22.40
2023-03-15T20:09:59.301Z,22.50
2023-03-15T20:15:06.874Z,22.50
2023-03-15T20:20:14.782Z,22.60
2023-03-15T20:25:22.337Z,22.70
2023-03-15T20:30:29.929Z,22.80
2023-03-15T20:35:37.696Z,22.90
2023-03-15T20:40:45.283Z,22.90
2023-03-15T20:45:52.872Z,23.00
2023-03-15T20:51:00.452Z,23.00
2023-03-15T20:56:08.228Z,23.10
2023-03-15T21:01:15.927Z,23.10
2023-03-15T21:06:23.127Z,23.20
2023-03-15T21:11:30.673Z,23.20
2023-03-15T21:16:38.430Z,23.30
2023-03-15T21:21:46.059Z,23.30
2023-03-15T21:26:53.784Z,23.40
2023-03-15T21:32:01.339Z,23.40
2023-03-15T21:37:08.998Z,23.50
2023-03-15T21:42:16.649Z,23.50
2023-03-15T21:47:24.008Z,23.60
2023-03-15T21:52:31.244Z,23.60
2023-03-15T21:57:38.465Z,23.60
2023-03-15T22:02:45.737Z,23.70
2023-03-15T22:07:53.012Z,23.70
2023-03-15T22:13:00.313Z,23.80
2023-03-15T22:18:07.474Z,23.80
2023-03-15T22:23:14.702Z,23.80
2023-03-15T22:28:21.954Z,23.90
2023-03-15T22:33:29.305Z,23.90
2023-03-15T22:38:36.516Z,23.90
2023-03-15T22:43:43.735Z,23.90
2023-03-15T22:48:50.935Z,24.00
2023-03-15T22:53:58.167Z,24.00
2023-03-15T22:59:05.367Z,24.10
2023-03-15T23:04:12.566Z,24.10
2023-03-15T23:09:19.737Z,24.10
2023-03-15T23:14:26.933Z,24.20
2023-03-15T23:19:34.178Z,24.20
2023-03-15T23:24:41.284Z,24.20
2023-03-15T23:29:54.567Z,24.20
2023-03-15T23:34:55.676Z,24.20
2023-03-15T23:40:02.911Z,24.20
2023-03-15T23:45:10.154Z,24.30
2023-03-15T23:50:19.769Z,24.30
2023-03-15T23:55:25.312Z,24.40
